sensor_id;sensor_type;location;lat;lon;timestamp;pressure;altitude;pressure_sealevel;temperature;humidity
17607;BME280;69222;52.242;20.980;2023-05-11T00:00:24;100867.19;;;11.55;34.35
17607;BME280;69222;52.242;20.980;2023-05-11T00:02:52;100862.88;;;11.52;33.95
17607;BME280;69222;52.242;20.980;2023-05-11T00:05:20;100857.75;;;11.49;32.97
17607;BME280;69222;52.242;20.980;2023-05-11T00:07:48;100863.75;;;11.51;34.29
17607;BME280;69222;52.242;20.980;2023-05-11T00:10:16;100852.59;;;11.49;34.43
17607;BME280;69222;52.242;20.980;2023-05-11T00:12:46;100858.59;;;11.48;34.09
17607;BME280;69222;52.242;20.980;2023-05-11T00:15:17;100855.19;;;11.49;32.62
17607;BME280;69222;52.242;20.980;2023-05-11T00:17:45;100861.22;;;11.45;33.58
17607;BME280;69222;52.242;20.980;2023-05-11T00:20:13;100845.72;;;11.42;33.21
17607;BME280;69222;52.242;20.980;2023-05-11T00:22:41;100856.03;;;11.41;33.32
17607;BME280;69222;52.242;20.980;2023-05-11T00:25:10;100861.22;;;11.42;34.48
17607;BME280;69222;52.242;20.980;2023-05-11T00:27:38;100852.63;;;11.35;32.60
17607;BME280;69222;52.242;20.980;2023-05-11T00:30:13;100859.50;;;11.33;34.12
17607;BME280;69222;52.242;20.980;2023-05-11T00:32:42;100862.09;;;11.29;33.57
17607;BME280;69222;52.242;20.980;2023-05-11T00:35:11;100858.66;;;11.24;32.80
17607;BME280;69222;52.242;20.980;2023-05-11T00:37:39;100860.38;;;11.22;33.18
17607;BME280;69222;52.242;20.980;2023-05-11T00:40:08;100865.53;;;11.16;33.39
17607;BME280;69222;52.242;20.980;2023-05-11T00:42:36;100856.09;;;11.13;34.16
17607;BME280;69222;52.242;20.980;2023-05-11T00:45:05;100861.25;;;11.08;35.54
17607;BME280;69222;52.242;20.980;2023-05-11T00:47:35;100856.09;;;11.05;35.31
17607;BME280;69222;52.242;20.980;2023-05-11T00:50:04;100853.53;;;10.95;35.51
17607;BME280;69222;52.242;20.980;2023-05-11T00:52:33;100850.94;;;10.85;35.62
17607;BME280;69222;52.242;20.980;2023-05-11T00:55:01;100855.22;;;10.85;35.58
17607;BME280;69222;52.242;20.980;2023-05-11T00:57:29;100842.31;;;10.89;35.55
17607;BME280;69222;52.242;20.980;2023-05-11T01:00:00;100845.78;;;10.84;35.45
17607;BME280;69222;52.242;20.980;2023-05-11T01:02:28;100847.50;;;10.85;33.77
17607;BME280;69222;52.242;20.980;2023-05-11T01:04:58;100847.50;;;10.79;34.82
17607;BME280;69222;52.242;20.980;2023-05-11T01:07:31;100850.06;;;10.80;34.20
17607;BME280;69222;52.242;20.980;2023-05-11T01:10:07;100842.34;;;10.80;35.32
17607;BME280;69222;52.242;20.980;2023-05-11T01:12:45;100840.63;;;10.73;35.25
17607;BME280;69222;52.242;20.980;2023-05-11T01:15:20;100844.94;;;10.68;35.97
17607;BME280;69222;52.242;20.980;2023-05-11T01:17:56;100837.16;;;10.63;35.13
17607;BME280;69222;52.242;20.980;2023-05-11T01:20:28;100844.06;;;10.61;35.26
17607;BME280;69222;52.242;20.980;2023-05-11T01:23:28;100844.03;;;10.54;34.93
17607;BME280;69222;52.242;20.980;2023-05-11T01:26:09;100844.91;;;10.54;34.95
17607;BME280;69222;52.242;20.980;2023-05-11T01:28:58;100837.16;;;10.48;35.43
17607;BME280;69222;52.242;20.980;2023-05-11T01:31:31;100844.00;;;10.49;36.19
17607;BME280;69222;52.242;20.980;2023-05-11T01:34:03;100837.16;;;10.51;34.62
17607;BME280;69222;52.242;20.980;2023-05-11T01:36:36;100846.59;;;10.49;35.31
17607;BME280;69222;52.242;20.980;2023-05-11T01:39:07;100843.16;;;10.36;35.45
17607;BME280;69222;52.242;20.980;2023-05-11T01:41:38;100831.94;;;10.27;36.15
17607;BME280;69222;52.242;20.980;2023-05-11T01:44:08;100837.94;;;10.21;36.48
17607;BME280;69222;52.242;20.980;2023-05-11T01:46:38;100843.94;;;10.20;36.60
17607;BME280;69222;52.242;20.980;2023-05-11T01:49:07;100831.03;;;10.14;37.52
17607;BME280;69222;52.242;20.980;2023-05-11T01:51:37;100844.72;;;10.04;37.19
17607;BME280;69222;52.242;20.980;2023-05-11T01:54:08;100836.16;;;10.02;36.50
17607;BME280;69222;52.242;20.980;2023-05-11T01:56:42;100842.16;;;9.99;38.16
17607;BME280;69222;52.242;20.980;2023-05-11T01:59:11;100836.97;;;9.87;37.81
17607;BME280;69222;52.242;20.980;2023-05-11T02:01:41;100840.38;;;9.86;38.25
17607;BME280;69222;52.242;20.980;2023-05-11T02:04:10;100840.34;;;9.83;37.07
17607;BME280;69222;52.242;20.980;2023-05-11T02:06:40;100835.19;;;9.77;38.88
17607;BME280;69222;52.242;20.980;2023-05-11T02:09:11;100837.78;;;9.81;37.75
17607;BME280;69222;52.242;20.980;2023-05-11T02:11:40;100833.50;;;9.76;37.49
17607;BME280;69222;52.242;20.980;2023-05-11T02:14:09;100842.06;;;9.78;37.51
17607;BME280;69222;52.242;20.980;2023-05-11T02:16:38;100836.09;;;9.83;36.91
17607;BME280;69222;52.242;20.980;2023-05-11T02:19:08;100839.53;;;9.90;37.55
17607;BME280;69222;52.242;20.980;2023-05-11T02:21:37;100838.66;;;9.89;37.95
17607;BME280;69222;52.242;20.980;2023-05-11T02:24:07;100837.78;;;9.86;38.24
17607;BME280;69222;52.242;20.980;2023-05-11T02:26:35;100848.06;;;9.77;37.40
17607;BME280;69222;52.242;20.980;2023-05-11T02:29:03;100846.31;;;9.70;38.89
17607;BME280;69222;52.242;20.980;2023-05-11T02:31:35;100845.44;;;9.61;38.89
17607;BME280;69222;52.242;20.980;2023-05-11T02:34:12;100844.53;;;9.55;38.40
17607;BME280;69222;52.242;20.980;2023-05-11T02:36:47;100847.09;;;9.50;39.14
17607;BME280;69222;52.242;20.980;2023-05-11T02:39:18;100840.16;;;9.46;38.80
17607;BME280;69222;52.242;20.980;2023-05-11T02:41:53;100849.59;;;9.46;38.95
17607;BME280;69222;52.242;20.980;2023-05-11T02:44:23;100849.53;;;9.32;39.45
17607;BME280;69222;52.242;20.980;2023-05-11T02:46:54;100858.91;;;9.27;39.42
17607;BME280;69222;52.242;20.980;2023-05-11T02:49:28;100852.88;;;9.18;39.04
17607;BME280;69222;52.242;20.980;2023-05-11T02:51:58;100858.84;;;9.14;40.18
17607;BME280;69222;52.242;20.980;2023-05-11T02:54:28;100848.50;;;9.08;40.75
17607;BME280;69222;52.242;20.980;2023-05-11T02:56:57;100848.50;;;9.08;39.96
17607;BME280;69222;52.242;20.980;2023-05-11T02:59:25;100853.59;;;9.01;40.48
17607;BME280;69222;52.242;20.980;2023-05-11T03:01:54;100862.13;;;8.98;41.00
17607;BME280;69222;52.242;20.980;2023-05-11T03:04:24;100858.66;;;8.93;41.82
17607;BME280;69222;52.242;20.980;2023-05-11T03:06:52;100854.34;;;8.90;41.63
17607;BME280;69222;52.242;20.980;2023-05-11T03:09:20;100859.50;;;8.90;40.79
17607;BME280;69222;52.242;20.980;2023-05-11T03:11:48;100854.31;;;8.86;41.36
17607;BME280;69222;52.242;20.980;2023-05-11T03:14:17;100855.16;;;8.82;42.23
17607;BME280;69222;52.242;20.980;2023-05-11T03:16:46;100862.84;;;8.80;41.26
17607;BME280;69222;52.242;20.980;2023-05-11T03:19:15;100857.66;;;8.76;41.64
17607;BME280;69222;52.242;20.980;2023-05-11T03:21:45;100861.94;;;8.74;41.69
17607;BME280;69222;52.242;20.980;2023-05-11T03:24:13;100865.38;;;8.76;41.25
17607;BME280;69222;52.242;20.980;2023-05-11T03:26:43;100871.38;;;8.78;41.66
17607;BME280;69222;52.242;20.980;2023-05-11T03:29:12;100866.22;;;8.76;41.50
17607;BME280;69222;52.242;20.980;2023-05-11T03:31:41;100872.22;;;8.74;40.93
17607;BME280;69222;52.242;20.980;2023-05-11T03:34:09;100868.78;;;8.75;41.94
17607;BME280;69222;52.242;20.980;2023-05-11T03:36:38;100867.06;;;8.75;41.28
17607;BME280;69222;52.242;20.980;2023-05-11T03:39:10;100873.13;;;8.80;41.18
17607;BME280;69222;52.242;20.980;2023-05-11T03:41:39;100877.38;;;8.80;41.18
17607;BME280;69222;52.242;20.980;2023-05-11T03:44:09;100880.00;;;8.83;41.11
17607;BME280;69222;52.242;20.980;2023-05-11T03:46:40;100878.31;;;8.86;40.73
17607;BME280;69222;52.242;20.980;2023-05-11T03:49:10;100885.19;;;8.87;40.38
17607;BME280;69222;52.242;20.980;2023-05-11T03:51:39;100878.38;;;8.92;41.42
17607;BME280;69222;52.242;20.980;2023-05-11T03:54:09;100887.81;;;8.98;40.20
17607;BME280;69222;52.242;20.980;2023-05-11T03:56:38;100880.19;;;9.04;40.82
17607;BME280;69222;52.242;20.980;2023-05-11T03:59:07;100881.09;;;9.12;40.10
17607;BME280;69222;52.242;20.980;2023-05-11T04:01:35;100884.59;;;9.21;40.44
17607;BME280;69222;52.242;20.980;2023-05-11T04:04:03;100892.41;;;9.33;40.95
17607;BME280;69222;52.242;20.980;2023-05-11T04:06:32;100888.19;;;9.46;40.18
17607;BME280;69222;52.242;20.980;2023-05-11T04:09:00;100889.13;;;9.54;40.55
17607;BME280;69222;52.242;20.980;2023-05-11T04:11:35;100891.72;;;9.60;39.24
17607;BME280;69222;52.242;20.980;2023-05-11T04:14:03;100890.03;;;9.66;39.06
17607;BME280;69222;52.242;20.980;2023-05-11T04:16:31;100878.94;;;9.75;38.85
17607;BME280;69222;52.242;20.980;2023-05-11T04:18:59;100884.13;;;9.86;38.51
17607;BME280;69222;52.242;20.980;2023-05-11T04:21:27;100884.22;;;9.98;39.21
17607;BME280;69222;52.242;20.980;2023-05-11T04:23:56;100886.78;;;10.04;38.89
17607;BME280;69222;52.242;20.980;2023-05-11T04:26:24;100881.72;;;10.16;38.29
17607;BME280;69222;52.242;20.980;2023-05-11T04:28:53;100890.34;;;10.31;38.08
17607;BME280;69222;52.242;20.980;2023-05-11T04:31:21;100886.94;;;10.39;38.19
17607;BME280;69222;52.242;20.980;2023-05-11T04:33:49;100890.38;;;10.35;38.06
17607;BME280;69222;52.242;20.980;2023-05-11T04:36:17;100891.25;;;10.48;37.61
17607;BME280;69222;52.242;20.980;2023-05-11T04:38:45;100892.13;;;10.59;37.65
17607;BME280;69222;52.242;20.980;2023-05-11T04:41:13;100889.59;;;10.72;37.55
17607;BME280;69222;52.242;20.980;2023-05-11T04:43:41;100887.03;;;10.81;37.27
17607;BME280;69222;52.242;20.980;2023-05-11T04:46:10;100890.47;;;10.95;37.40
17607;BME280;69222;52.242;20.980;2023-05-11T04:48:38;100898.19;;;11.00;36.36
17607;BME280;69222;52.242;20.980;2023-05-11T04:51:07;100892.19;;;11.07;36.84
17607;BME280;69222;52.242;20.980;2023-05-11T04:53:35;100899.06;;;11.22;37.65
17607;BME280;69222;52.242;20.980;2023-05-11T04:56:03;100893.03;;;11.46;36.52
17607;BME280;69222;52.242;20.980;2023-05-11T04:58:31;100899.84;;;11.76;36.01
17607;BME280;69222;52.242;20.980;2023-05-11T05:00:59;100897.16;;;12.11;35.70
17607;BME280;69222;52.242;20.980;2023-05-11T05:03:28;100897.06;;;12.34;35.00
17607;BME280;69222;52.242;20.980;2023-05-11T05:05:57;100894.97;;;12.91;32.67
17607;BME280;69222;52.242;20.980;2023-05-11T05:08:25;100890.66;;;13.84;31.78
17607;BME280;69222;52.242;20.980;2023-05-11T05:10:52;100888.16;;;15.06;29.80
17607;BME280;69222;52.242;20.980;2023-05-11T05:13:20;100887.00;;;16.15;28.06
17607;BME280;69222;52.242;20.980;2023-05-11T05:15:48;100889.50;;;16.98;25.87
17607;BME280;69222;52.242;20.980;2023-05-11T05:18:16;100885.66;;;17.47;26.37
17607;BME280;69222;52.242;20.980;2023-05-11T05:20:46;100894.63;;;17.35;25.36
17607;BME280;69222;52.242;20.980;2023-05-11T05:23:14;100885.06;;;17.68;26.70
17607;BME280;69222;52.242;20.980;2023-05-11T05:25:42;100894.84;;;18.22;24.59
17607;BME280;69222;52.242;20.980;2023-05-11T05:28:10;100891.56;;;18.73;24.21
17607;BME280;69222;52.242;20.980;2023-05-11T05:30:38;100888.72;;;19.08;23.17
17607;BME280;69222;52.242;20.980;2023-05-11T05:33:06;100891.94;;;19.91;22.92
17607;BME280;69222;52.242;20.980;2023-05-11T05:35:34;100895.00;;;20.93;21.31
17607;BME280;69222;52.242;20.980;2023-05-11T05:38:03;100884.53;;;22.14;20.46
17607;BME280;69222;52.242;20.980;2023-05-11T05:40:31;100888.44;;;23.66;19.37
17607;BME280;69222;52.242;20.980;2023-05-11T05:43:03;100886.28;;;24.71;17.10
17607;BME280;69222;52.242;20.980;2023-05-11T05:45:30;100886.19;;;25.33;16.72
17607;BME280;69222;52.242;20.980;2023-05-11T05:47:58;100886.50;;;26.14;16.45
17607;BME280;69222;52.242;20.980;2023-05-11T05:50:26;100885.44;;;26.72;15.11
17607;BME280;69222;52.242;20.980;2023-05-11T05:52:54;100888.72;;;25.78;15.64
17607;BME280;69222;52.242;20.980;2023-05-11T05:55:24;100885.09;;;26.22;16.26
17607;BME280;69222;52.242;20.980;2023-05-11T05:57:51;100890.97;;;26.82;15.34
17607;BME280;69222;52.242;20.980;2023-05-11T06:00:19;100879.66;;;27.45;14.64
17607;BME280;69222;52.242;20.980;2023-05-11T06:02:47;100890.81;;;28.25;14.28
17607;BME280;69222;52.242;20.980;2023-05-11T06:05:15;100883.66;;;28.86;13.82
17607;BME280;69222;52.242;20.980;2023-05-11T06:07:43;100888.19;;;28.12;13.63
17607;BME280;69222;52.242;20.980;2023-05-11T06:10:28;100889.09;;;28.24;13.79
17607;BME280;69222;52.242;20.980;2023-05-11T06:12:56;100891.97;;;27.84;14.17
17607;BME280;69222;52.242;20.980;2023-05-11T06:15:24;100890.59;;;28.65;13.83
17607;BME280;69222;52.242;20.980;2023-05-11T06:17:52;100888.16;;;28.62;13.20
17607;BME280;69222;52.242;20.980;2023-05-11T06:20:20;100887.69;;;28.68;13.66
17607;BME280;69222;52.242;20.980;2023-05-11T06:22:49;100886.28;;;29.57;13.57
17607;BME280;69222;52.242;20.980;2023-05-11T06:25:17;100896.13;;;29.79;12.52
17607;BME280;69222;52.242;20.980;2023-05-11T06:27:46;100886.28;;;30.36;12.71
17607;BME280;69222;52.242;20.980;2023-05-11T06:30:14;100887.63;;;30.19;12.09
17607;BME280;69222;52.242;20.980;2023-05-11T06:32:43;100888.84;;;30.58;12.05
17607;BME280;69222;52.242;20.980;2023-05-11T06:35:13;100896.31;;;31.49;12.03
17607;BME280;69222;52.242;20.980;2023-05-11T06:37:41;100890.28;;;30.62;11.54
17607;BME280;69222;52.242;20.980;2023-05-11T06:40:09;100892.47;;;30.25;11.44
17607;BME280;69222;52.242;20.980;2023-05-11T06:42:38;100898.53;;;30.59;11.92
17607;BME280;69222;52.242;20.980;2023-05-11T06:45:09;100898.09;;;30.86;11.53
17607;BME280;69222;52.242;20.980;2023-05-11T06:47:37;100898.53;;;31.75;11.11
17607;BME280;69222;52.242;20.980;2023-05-11T06:50:06;100895.56;;;32.78;11.17
17607;BME280;69222;52.242;20.980;2023-05-11T06:52:34;100896.78;;;31.22;10.35
17607;BME280;69222;52.242;20.980;2023-05-11T06:55:03;100898.97;;;29.07;12.24
17607;BME280;69222;52.242;20.980;2023-05-11T06:57:30;100897.06;;;29.67;11.92
17607;BME280;69222;52.242;20.980;2023-05-11T06:59:58;100894.53;;;30.97;11.21
17607;BME280;69222;52.242;20.980;2023-05-11T07:02:28;100902.25;;;31.21;11.34
17607;BME280;69222;52.242;20.980;2023-05-11T07:04:56;100900.06;;;31.47;10.82
17607;BME280;69222;52.242;20.980;2023-05-11T07:07:24;100890.47;;;31.35;10.34
17607;BME280;69222;52.242;20.980;2023-05-11T07:09:52;100894.97;;;31.86;9.68
17607;BME280;69222;52.242;20.980;2023-05-11T07:12:20;100889.63;;;33.23;10.01
17607;BME280;69222;52.242;20.980;2023-05-11T07:14:48;100883.09;;;34.20;8.79
17607;BME280;69222;52.242;20.980;2023-05-11T07:17:16;100885.47;;;34.50;8.39
17607;BME280;69222;52.242;20.980;2023-05-11T07:19:45;100891.47;;;33.23;9.00
17607;BME280;69222;52.242;20.980;2023-05-11T07:22:13;100889.41;;;32.18;8.84
17607;BME280;69222;52.242;20.980;2023-05-11T07:24:41;100896.13;;;30.45;9.97
17607;BME280;69222;52.242;20.980;2023-05-11T07:27:09;100886.84;;;28.68;11.16
17607;BME280;69222;52.242;20.980;2023-05-11T07:29:37;100908.91;;;28.31;11.03
17607;BME280;69222;52.242;20.980;2023-05-11T07:32:05;100897.69;;;27.00;11.78
17607;BME280;69222;52.242;20.980;2023-05-11T07:34:32;100891.69;;;25.58;13.17
17607;BME280;69222;52.242;20.980;2023-05-11T07:37:02;100891.81;;;26.82;12.83
17607;BME280;69222;52.242;20.980;2023-05-11T07:39:30;100886.09;;;28.05;11.96
17607;BME280;69222;52.242;20.980;2023-05-11T07:41:57;100889.34;;;28.21;12.18
17607;BME280;69222;52.242;20.980;2023-05-11T07:44:25;100880.81;;;29.36;11.13
17607;BME280;69222;52.242;20.980;2023-05-11T07:46:53;100882.91;;;29.89;11.03
17607;BME280;69222;52.242;20.980;2023-05-11T07:49:22;100874.28;;;30.41;10.30
17607;BME280;69222;52.242;20.980;2023-05-11T07:52:06;100869.16;;;31.96;9.79
17607;BME280;69222;52.242;20.980;2023-05-11T07:54:34;100870.75;;;33.44;8.41
17607;BME280;69222;52.242;20.980;2023-05-11T07:57:02;100871.78;;;33.71;7.60
17607;BME280;69222;52.242;20.980;2023-05-11T07:59:30;100868.25;;;33.98;8.05
17607;BME280;69222;52.242;20.980;2023-05-11T08:01:58;100873.66;;;31.34;9.11
17607;BME280;69222;52.242;20.980;2023-05-11T08:04:26;100887.13;;;30.36;9.73
17607;BME280;69222;52.242;20.980;2023-05-11T08:06:55;100878.69;;;30.20;9.45
17607;BME280;69222;52.242;20.980;2023-05-11T08:09:25;100877.97;;;29.84;9.90
17607;BME280;69222;52.242;20.980;2023-05-11T08:11:53;100874.47;;;30.06;10.21
17607;BME280;69222;52.242;20.980;2023-05-11T08:14:22;100872.63;;;29.50;10.58
17607;BME280;69222;52.242;20.980;2023-05-11T08:16:50;100883.91;;;27.73;11.93
17607;BME280;69222;52.242;20.980;2023-05-11T08:19:18;100884.06;;;25.68;12.94
17607;BME280;69222;52.242;20.980;2023-05-11T08:21:46;100893.00;;;23.80;14.59
17607;BME280;69222;52.242;20.980;2023-05-11T08:24:14;100877.72;;;22.29;15.97
17607;BME280;69222;52.242;20.980;2023-05-11T08:26:44;100891.94;;;21.24;17.70
17607;BME280;69222;52.242;20.980;2023-05-11T08:29:12;100895.22;;;20.87;18.51
17607;BME280;69222;52.242;20.980;2023-05-11T08:31:40;100880.75;;;20.56;18.05
17607;BME280;69222;52.242;20.980;2023-05-11T08:34:08;100884.00;;;20.63;18.32
17607;BME280;69222;52.242;20.980;2023-05-11T08:36:39;100882.00;;;20.69;18.40
17607;BME280;69222;52.242;20.980;2023-05-11T08:39:07;100885.84;;;20.14;19.15
17607;BME280;69222;52.242;20.980;2023-05-11T08:41:35;100873.22;;;20.01;18.95
17607;BME280;69222;52.242;20.980;2023-05-11T08:44:05;100882.22;;;19.94;18.71
17607;BME280;69222;52.242;20.980;2023-05-11T08:46:35;100876.03;;;19.97;18.53
17607;BME280;69222;52.242;20.980;2023-05-11T08:49:07;100885.22;;;19.84;18.51
17607;BME280;69222;52.242;20.980;2023-05-11T08:51:35;100897.94;;;19.69;18.33
17607;BME280;69222;52.242;20.980;2023-05-11T08:54:03;100891.22;;;19.37;18.68
17607;BME280;69222;52.242;20.980;2023-05-11T08:56:33;100876.75;;;19.52;18.85
17607;BME280;69222;52.242;20.980;2023-05-11T08:59:04;100882.78;;;19.79;19.17
17607;BME280;69222;52.242;20.980;2023-05-11T09:01:34;100883.16;;;19.68;19.11
17607;BME280;69222;52.242;20.980;2023-05-11T09:04:03;100890.09;;;19.44;18.72
17607;BME280;69222;52.242;20.980;2023-05-11T09:06:31;100884.25;;;19.36;19.72
17607;BME280;69222;52.242;20.980;2023-05-11T09:09:00;100880.22;;;19.27;19.71
17607;BME280;69222;52.242;20.980;2023-05-11T09:11:29;100872.47;;;19.24;19.93
17607;BME280;69222;52.242;20.980;2023-05-11T09:13:57;100889.72;;;19.30;20.08
17607;BME280;69222;52.242;20.980;2023-05-11T09:16:27;100879.44;;;18.99;19.99
17607;BME280;69222;52.242;20.980;2023-05-11T09:19:02;100877.13;;;19.16;19.87
17607;BME280;69222;52.242;20.980;2023-05-11T09:21:32;100879.31;;;19.78;19.66
17607;BME280;69222;52.242;20.980;2023-05-11T09:24:01;100877.81;;;20.86;18.37
17607;BME280;69222;52.242;20.980;2023-05-11T09:26:32;100859.19;;;22.13;16.35
17607;BME280;69222;52.242;20.980;2023-05-11T09:29:00;100875.50;;;23.11;15.44
17607;BME280;69222;52.242;20.980;2023-05-11T09:31:38;100852.00;;;23.76;14.64
17607;BME280;69222;52.242;20.980;2023-05-11T09:34:14;100853.34;;;24.78;14.42
17607;BME280;69222;52.242;20.980;2023-05-11T09:36:43;100854.91;;;24.34;15.02
17607;BME280;69222;52.242;20.980;2023-05-11T09:39:11;100850.53;;;24.81;14.68
17607;BME280;69222;52.242;20.980;2023-05-11T09:42:10;100853.53;;;25.64;14.74
17607;BME280;69222;52.242;20.980;2023-05-11T09:44:38;100851.28;;;27.34;12.54
17607;BME280;69222;52.242;20.980;2023-05-11T09:47:13;100847.53;;;28.37;12.18
17607;BME280;69222;52.242;20.980;2023-05-11T09:49:43;100851.03;;;29.55;10.94
17607;BME280;69222;52.242;20.980;2023-05-11T09:52:13;100837.78;;;29.66;10.74
17607;BME280;69222;52.242;20.980;2023-05-11T09:54:42;100847.25;;;27.80;11.92
17607;BME280;69222;52.242;20.980;2023-05-11T09:57:23;100847.81;;;27.34;12.28
17607;BME280;69222;52.242;20.980;2023-05-11T09:59:52;100838.31;;;27.93;12.51
17607;BME280;69222;52.242;20.980;2023-05-11T10:02:23;100830.50;;;29.57;11.71
17607;BME280;69222;52.242;20.980;2023-05-11T10:04:54;100829.69;;;31.19;10.43
17607;BME280;69222;52.242;20.980;2023-05-11T10:07:26;100826.38;;;31.97;10.08
17607;BME280;69222;52.242;20.980;2023-05-11T10:09:56;100812.09;;;32.76;9.71
17607;BME280;69222;52.242;20.980;2023-05-11T10:12:25;100833.16;;;33.08;10.13
17607;BME280;69222;52.242;20.980;2023-05-11T10:14:55;100822.72;;;31.98;9.15
17607;BME280;69222;52.242;20.980;2023-05-11T10:17:27;100829.47;;;31.62;9.72
17607;BME280;69222;52.242;20.980;2023-05-11T10:19:56;100820.31;;;31.55;10.23
17607;BME280;69222;52.242;20.980;2023-05-11T10:22:26;100825.75;;;31.84;9.32
17607;BME280;69222;52.242;20.980;2023-05-11T10:24:56;100815.56;;;31.99;9.61
17607;BME280;69222;52.242;20.980;2023-05-11T10:27:24;100809.84;;;32.33;8.99
17607;BME280;69222;52.242;20.980;2023-05-11T10:29:52;100808.19;;;32.61;8.54
17607;BME280;69222;52.242;20.980;2023-05-11T10:32:20;100805.69;;;32.50;8.60
17607;BME280;69222;52.242;20.980;2023-05-11T10:34:49;100798.63;;;32.39;9.33
17607;BME280;69222;52.242;20.980;2023-05-11T10:37:17;100802.66;;;30.61;10.28
17607;BME280;69222;52.242;20.980;2023-05-11T10:39:47;100812.03;;;29.44;10.90
17607;BME280;69222;52.242;20.980;2023-05-11T10:42:47;100793.97;;;28.92;11.96
17607;BME280;69222;52.242;20.980;2023-05-11T10:45:20;100800.06;;;29.16;11.26
17607;BME280;69222;52.242;20.980;2023-05-11T10:51:11;100792.09;;;29.95;11.10
17607;BME280;69222;52.242;20.980;2023-05-11T10:54:03;100789.34;;;29.06;10.96
17607;BME280;69222;52.242;20.980;2023-05-11T10:57:06;100800.44;;;29.34;11.02
17607;BME280;69222;52.242;20.980;2023-05-11T11:00:00;100794.66;;;29.18;11.54
17607;BME280;69222;52.242;20.980;2023-05-11T11:02:36;100797.88;;;27.91;12.20
17607;BME280;69222;52.242;20.980;2023-05-11T11:05:05;100775.22;;;27.87;13.33
17607;BME280;69222;52.242;20.980;2023-05-11T11:07:56;100796.81;;;26.12;12.69
17607;BME280;69222;52.242;20.980;2023-05-11T11:10:30;100791.97;;;25.77;14.03
17607;BME280;69222;52.242;20.980;2023-05-11T11:13:02;100794.91;;;26.68;13.58
17607;BME280;69222;52.242;20.980;2023-05-11T11:18:32;100787.00;;;28.91;12.28
17607;BME280;69222;52.242;20.980;2023-05-11T11:21:01;100775.22;;;29.40;11.94
17607;BME280;69222;52.242;20.980;2023-05-11T11:23:48;100782.69;;;29.12;11.39
17607;BME280;69222;52.242;20.980;2023-05-11T11:26:38;100788.13;;;26.10;13.62
17607;BME280;69222;52.242;20.980;2023-05-11T11:29:12;100786.22;;;25.85;13.94
17607;BME280;69222;52.242;20.980;2023-05-11T11:31:40;100779.34;;;25.83;14.38
17607;BME280;69222;52.242;20.980;2023-05-11T11:34:31;100785.09;;;25.61;14.44
17607;BME280;69222;52.242;20.980;2023-05-11T11:37:03;100785.25;;;24.56;15.05
17607;BME280;69222;52.242;20.980;2023-05-11T11:39:50;100808.44;;;22.67;15.81
17607;BME280;69222;52.242;20.980;2023-05-11T11:42:33;100801.16;;;22.00;17.97
17607;BME280;69222;52.242;20.980;2023-05-11T11:45:25;100788.59;;;22.07;17.17
17607;BME280;69222;52.242;20.980;2023-05-11T11:48:07;100793.75;;;22.27;17.87
17607;BME280;69222;52.242;20.980;2023-05-11T11:50:35;100775.81;;;22.37;18.17
17607;BME280;69222;52.242;20.980;2023-05-11T11:53:03;100797.41;;;22.42;17.42
17607;BME280;69222;52.242;20.980;2023-05-11T11:55:46;100796.19;;;22.32;18.02
17607;BME280;69222;52.242;20.980;2023-05-11T12:01:22;100800.44;;;21.40;18.57
17607;BME280;69222;52.242;20.980;2023-05-11T12:04:18;100784.09;;;21.33;17.56
17607;BME280;69222;52.242;20.980;2023-05-11T12:06:54;100803.03;;;21.19;18.28
17607;BME280;69222;52.242;20.980;2023-05-11T12:09:24;100789.16;;;21.17;19.23
17607;BME280;69222;52.242;20.980;2023-05-11T12:11:53;100784.03;;;21.35;18.28
17607;BME280;69222;52.242;20.980;2023-05-11T12:14:22;100786.88;;;21.49;18.67
17607;BME280;69222;52.242;20.980;2023-05-11T12:17:04;100798.03;;;21.54;19.40
17607;BME280;69222;52.242;20.980;2023-05-11T12:19:33;100787.03;;;21.26;19.45
17607;BME280;69222;52.242;20.980;2023-05-11T12:22:02;100793.34;;;21.01;19.40
17607;BME280;69222;52.242;20.980;2023-05-11T12:24:30;100785.81;;;20.93;19.78
17607;BME280;69222;52.242;20.980;2023-05-11T12:27:01;100789.81;;;20.82;19.28
17607;BME280;69222;52.242;20.980;2023-05-11T12:29:30;100787.84;;;20.66;20.08
17607;BME280;69222;52.242;20.980;2023-05-11T12:31:58;100795.28;;;20.55;19.55
17607;BME280;69222;52.242;20.980;2023-05-11T12:34:27;100773.09;;;20.64;19.75
17607;BME280;69222;52.242;20.980;2023-05-11T12:36:55;100777.34;;;20.66;20.00
17607;BME280;69222;52.242;20.980;2023-05-11T12:39:26;100773.69;;;20.48;20.77
17607;BME280;69222;52.242;20.980;2023-05-11T12:41:55;100773.94;;;20.64;20.66
17607;BME280;69222;52.242;20.980;2023-05-11T12:44:25;100775.00;;;20.81;21.00
17607;BME280;69222;52.242;20.980;2023-05-11T12:46:53;100762.81;;;20.59;20.37
17607;BME280;69222;52.242;20.980;2023-05-11T12:49:23;100762.13;;;20.54;20.67
17607;BME280;69222;52.242;20.980;2023-05-11T12:52:00;100763.34;;;20.45;20.00
17607;BME280;69222;52.242;20.980;2023-05-11T12:54:31;100758.50;;;20.14;20.76
17607;BME280;69222;52.242;20.980;2023-05-11T12:57:00;100754.78;;;20.20;20.53
17607;BME280;69222;52.242;20.980;2023-05-11T12:59:32;100740.78;;;20.21;21.89
17607;BME280;69222;52.242;20.980;2023-05-11T13:02:08;100754.16;;;20.13;20.98
17607;BME280;69222;52.242;20.980;2023-05-11T13:04:37;100752.13;;;20.21;20.97
17607;BME280;69222;52.242;20.980;2023-05-11T13:07:05;100746.59;;;20.07;21.27
17607;BME280;69222;52.242;20.980;2023-05-11T13:09:34;100758.50;;;20.14;21.31